Time;durP1;ratioP1;P1;durP2;ratioP2;P2;SDS_P1;SDS_P2;PMS_P1;PMS_P2;Temp;Humidity;BMP_temperature;BMP_pressure;BME280_temperature;BME280_humidity;BME280_pressure;Samples;Min_cycle;Max_cycle;Signal;HPM_P1;HPM_P2
2023/03/14 00:00:05;;;;;;;0.90;0.70;;;8.90;99.90;;;;;;5030632;28;20281;-69
2023/03/14 00:02:33;;;;;;;1.10;1.00;;;8.90;99.90;;;;;;5030895;28;20243;-69
2023/03/14 00:05:02;;;;;;;1.42;0.80;;;8.90;99.90;;;;;;5029812;28;20568;-69
2023/03/14 00:07:33;;;;;;;0.70;0.70;;;8.90;99.90;;;;;;5030055;28;20232;-69
2023/03/14 00:10:00;;;;;;;0.98;0.85;;;8.90;99.90;;;;;;5114360;23;20235;-94
2023/03/14 00:12:28;;;;;;;1.00;0.90;;;8.90;99.90;;;;;;5081036;28;20183;-94
2023/03/14 00:14:54;;;;;;;0.80;0.80;;;8.90;99.90;;;;;;5068478;23;20216;-74
2023/03/14 00:17:21;;;;;;;1.88;0.90;;;8.90;99.90;;;;;;5056574;28;20218;-75
2023/03/14 00:19:52;;;;;;;1.80;0.80;;;8.90;99.90;;;;;;5056441;28;20573;-76
2023/03/14 00:22:18;;;;;;;1.00;0.80;;;8.90;99.90;;;;;;5056709;28;20204;-75
2023/03/14 00:24:45;;;;;;;2.67;0.90;;;9.00;99.90;;;;;;5056655;28;20227;-76
2023/03/14 00:27:12;;;;;;;0.95;0.88;;;8.90;99.90;;;;;;5055112;28;20275;-76
2023/03/14 00:29:39;;;;;;;4.30;0.80;;;9.00;99.90;;;;;;5056895;28;20201;-76
2023/03/14 00:32:05;;;;;;;0.95;0.82;;;8.90;99.90;;;;;;5055865;28;20212;-75
2023/03/14 00:34:33;;;;;;;0.80;0.60;;;8.90;99.90;;;;;;5055108;28;20232;-76
2023/03/14 00:37:01;;;;;;;2.05;1.10;;;9.00;99.90;;;;;;5055028;28;20695;-75
2023/03/14 00:39:28;;;;;;;1.10;1.00;;;9.00;99.90;;;;;;5054453;28;20197;-75
2023/03/14 00:41:55;;;;;;;2.40;1.08;;;9.00;99.90;;;;;;5055108;28;20262;-75
2023/03/14 00:44:21;;;;;;;6.72;0.98;;;9.00;99.90;;;;;;5053882;28;20229;-75
2023/03/14 00:46:48;;;;;;;2.22;1.27;;;9.00;99.90;;;;;;5066104;28;20216;-75
2023/03/14 00:49:15;;;;;;;1.35;1.08;;;9.00;99.90;;;;;;5073196;28;20223;-75
2023/03/14 00:51:42;;;;;;;1.48;1.10;;;9.00;99.90;;;;;;5072955;28;20201;-76
2023/03/14 00:54:10;;;;;;;1.10;0.90;;;9.00;99.90;;;;;;5071839;28;20229;-75
2023/03/14 00:56:36;;;;;;;1.00;0.70;;;9.10;99.90;;;;;;5071651;28;20200;-76
2023/03/14 00:59:03;;;;;;;0.90;0.80;;;9.10;99.90;;;;;;5072649;28;20207;-75
2023/03/14 01:01:30;;;;;;;0.70;0.70;;;9.10;99.90;;;;;;5073168;28;20671;-75
2023/03/14 01:03:57;;;;;;;1.25;0.90;;;9.10;99.90;;;;;;5074084;28;20228;-75
2023/03/14 01:06:26;;;;;;;1.15;0.70;;;9.20;99.90;;;;;;5071821;28;20345;-74
2023/03/14 01:08:54;;;;;;;1.80;0.90;;;9.20;99.90;;;;;;5073467;28;20205;-75
2023/03/14 01:11:24;;;;;;;0.80;0.80;;;9.20;99.90;;;;;;5072786;28;20215;-75
2023/03/14 01:13:51;;;;;;;0.93;0.82;;;9.20;99.90;;;;;;5072966;28;20216;-75
2023/03/14 01:16:19;;;;;;;1.00;0.73;;;9.20;99.90;;;;;;5073266;28;20220;-75
2023/03/14 01:18:47;;;;;;;1.00;0.80;;;9.20;99.90;;;;;;5073393;28;20561;-75
2023/03/14 01:21:15;;;;;;;0.88;0.75;;;9.20;99.90;;;;;;5065953;28;20692;-75
2023/03/14 01:23:42;;;;;;;1.00;0.77;;;9.20;99.90;;;;;;5072412;28;20601;-76
2023/03/14 01:26:11;;;;;;;1.70;1.00;;;9.20;99.90;;;;;;5072838;28;20208;-75
2023/03/14 01:28:39;;;;;;;0.70;0.60;;;9.20;99.90;;;;;;5073113;28;20204;-75
2023/03/14 01:31:07;;;;;;;0.90;0.70;;;9.20;99.90;;;;;;5072925;28;20211;-74
2023/03/14 01:33:34;;;;;;;1.70;0.88;;;9.30;99.90;;;;;;5072800;28;20278;-73
2023/03/14 01:36:02;;;;;;;0.90;0.80;;;9.30;99.90;;;;;;5072140;28;20200;-74
2023/03/14 01:38:28;;;;;;;0.90;0.80;;;9.30;99.90;;;;;;5073312;28;20200;-74
2023/03/14 01:40:55;;;;;;;0.70;0.60;;;9.30;99.90;;;;;;5076503;28;20192;-73
2023/03/14 01:43:24;;;;;;;1.88;0.80;;;9.30;99.90;;;;;;5077236;28;20258;-74
2023/03/14 01:46:18;;;;;;;0.80;0.70;;;9.20;99.90;;;;;;5080381;28;20206;-73
2023/03/14 01:48:50;;;;;;;1.10;0.80;;;9.20;99.90;;;;;;5079495;28;20199;-74
2023/03/14 01:51:20;;;;;;;0.90;0.80;;;9.20;99.90;;;;;;5075559;28;20204;-73
2023/03/14 01:53:48;;;;;;;0.80;0.70;;;9.20;99.90;;;;;;5075603;28;20224;-77
2023/03/14 01:56:17;;;;;;;0.73;0.68;;;9.20;99.90;;;;;;5075744;28;20615;-76
2023/03/14 01:58:48;;;;;;;0.90;0.80;;;9.10;99.90;;;;;;5076557;28;20208;-75
2023/03/14 02:01:18;;;;;;;0.80;0.70;;;9.10;99.90;;;;;;5075161;28;20200;-75
2023/03/14 02:03:51;;;;;;;0.90;0.80;;;9.10;99.90;;;;;;5072777;28;20220;-75
2023/03/14 02:06:20;;;;;;;1.23;0.80;;;9.10;99.90;;;;;;5055006;28;20201;-76
2023/03/14 02:08:49;;;;;;;0.80;0.80;;;9.10;99.90;;;;;;5055489;28;20212;-75
2023/03/14 02:11:16;;;;;;;0.80;0.70;;;9.00;99.90;;;;;;5054738;28;20205;-75
2023/03/14 02:13:44;;;;;;;1.13;0.80;;;9.00;99.90;;;;;;5054234;28;20593;-75
2023/03/14 02:16:10;;;;;;;1.02;0.70;;;9.00;99.90;;;;;;5054922;28;20204;-76
2023/03/14 02:18:40;;;;;;;0.90;0.70;;;8.90;99.90;;;;;;5055084;28;20197;-75
2023/03/14 02:21:14;;;;;;;0.90;0.70;;;8.90;99.90;;;;;;5054602;28;20205;-75
2023/03/14 02:23:48;;;;;;;0.85;0.70;;;8.90;99.90;;;;;;5055266;28;20248;-75
2023/03/14 02:26:20;;;;;;;1.92;0.90;;;8.90;99.90;;;;;;5054865;28;20247;-75
2023/03/14 02:28:48;;;;;;;1.70;0.70;;;8.90;99.90;;;;;;5055435;28;20208;-75
2023/03/14 02:31:15;;;;;;;1.95;0.90;;;8.90;99.90;;;;;;5055548;28;20200;-75
2023/03/14 02:33:42;;;;;;;1.08;0.95;;;8.90;99.90;;;;;;5055195;28;20574;-75
2023/03/14 02:36:14;;;;;;;0.85;0.77;;;8.90;99.90;;;;;;5054596;28;20656;-74
2023/03/14 02:38:47;;;;;;;0.95;0.70;;;8.90;99.90;;;;;;5055107;28;20205;-75
2023/03/14 02:41:14;;;;;;;0.90;0.70;;;8.90;99.90;;;;;;5054376;28;20565;-74
2023/03/14 02:43:41;;;;;;;1.10;0.82;;;8.90;99.90;;;;;;5053927;28;20224;-74
2023/03/14 02:46:12;;;;;;;0.70;0.60;;;9.00;99.90;;;;;;5053413;28;20204;-75
2023/03/14 02:48:42;;;;;;;2.13;0.93;;;9.00;99.90;;;;;;5055623;28;20213;-75
2023/03/14 02:51:09;;;;;;;0.80;0.68;;;9.00;99.90;;;;;;5053031;28;20205;-75
2023/03/14 02:53:37;;;;;;;1.20;0.75;;;8.90;99.90;;;;;;5062477;28;20228;-74
2023/03/14 02:56:05;;;;;;;1.77;0.98;;;8.90;99.90;;;;;;5073037;28;20230;-75
2023/03/14 02:58:32;;;;;;;1.27;0.80;;;8.90;99.90;;;;;;5074574;28;20204;-74
2023/03/14 03:00:59;;;;;;;1.00;0.90;;;8.90;99.90;;;;;;5075109;28;20215;-75
2023/03/14 03:03:27;;;;;;;1.25;0.98;;;8.80;99.90;;;;;;5073397;28;20220;-75
2023/03/14 03:05:55;;;;;;;0.80;0.70;;;8.80;99.90;;;;;;5074545;28;20557;-74
2023/03/14 03:08:25;;;;;;;0.80;0.70;;;8.90;99.90;;;;;;5074637;28;20227;-75
2023/03/14 03:10:53;;;;;;;1.48;0.80;;;8.80;99.90;;;;;;5075275;28;20243;-76
2023/03/14 03:13:20;;;;;;;0.80;0.70;;;8.80;99.90;;;;;;5074187;28;20327;-75
2023/03/14 03:15:47;;;;;;;0.95;0.85;;;8.70;99.90;;;;;;5073831;28;20197;-73
2023/03/14 03:18:14;;;;;;;0.98;0.80;;;8.70;99.90;;;;;;5074129;28;20199;-75
2023/03/14 03:20:42;;;;;;;1.15;0.95;;;8.70;99.90;;;;;;5074453;28;20204;-75
2023/03/14 03:23:09;;;;;;;1.90;0.80;;;8.70;99.90;;;;;;5074082;28;20207;-75
2023/03/14 03:25:35;;;;;;;0.80;0.70;;;8.80;99.90;;;;;;5073225;28;20200;-75
2023/03/14 03:28:07;;;;;;;0.80;0.80;;;8.70;99.90;;;;;;5074150;28;20216;-74
2023/03/14 03:30:34;;;;;;;2.03;0.93;;;8.70;99.90;;;;;;5074466;28;20291;-74
2023/03/14 03:33:01;;;;;;;0.90;0.80;;;8.70;99.90;;;;;;5083726;28;20204;-74
2023/03/14 03:35:28;;;;;;;0.90;0.70;;;8.70;99.90;;;;;;5078271;28;20217;-74
2023/03/14 03:37:56;;;;;;;1.50;0.85;;;8.70;99.90;;;;;;5077319;28;20193;-74
2023/03/14 03:40:22;;;;;;;0.90;0.80;;;8.70;99.90;;;;;;5077103;28;20211;-73
2023/03/14 03:42:49;;;;;;;1.33;0.90;;;8.70;99.90;;;;;;5076251;28;20200;-74
2023/03/14 03:45:16;;;;;;;1.35;0.90;;;8.60;99.90;;;;;;5077622;28;20205;-74
2023/03/14 03:47:42;;;;;;;1.25;0.82;;;8.60;99.90;;;;;;5077357;28;20315;-76
2023/03/14 03:50:10;;;;;;;4.32;1.85;;;8.50;99.90;;;;;;5076423;28;20200;-74
2023/03/14 03:52:37;;;;;;;2.05;1.10;;;8.50;99.90;;;;;;5074440;28;20637;-73
2023/03/14 03:55:06;;;;;;;1.05;0.82;;;8.50;99.90;;;;;;5072287;28;20221;-73
2023/03/14 03:57:32;;;;;;;3.53;1.15;;;8.50;99.90;;;;;;5073173;28;20196;-74
2023/03/14 03:59:59;;;;;;;1.52;0.93;;;8.50;99.90;;;;;;5075245;28;20879;-74
2023/03/14 04:02:26;;;;;;;3.30;1.00;;;8.50;99.90;;;;;;5074513;28;20210;-74
2023/03/14 04:04:52;;;;;;;1.20;0.90;;;8.40;99.90;;;;;;5074013;28;20225;-74
2023/03/14 04:07:19;;;;;;;1.25;1.15;;;8.40;99.90;;;;;;5074187;28;20330;-75
2023/03/14 04:09:46;;;;;;;3.00;1.10;;;8.40;99.90;;;;;;5074874;28;20204;-74
2023/03/14 04:12:14;;;;;;;2.35;0.95;;;8.40;99.90;;;;;;5072159;28;20276;-74
2023/03/14 04:14:41;;;;;;;2.20;0.88;;;8.40;99.90;;;;;;5071796;28;20228;-74
2023/03/14 04:17:08;;;;;;;3.10;0.80;;;8.40;99.90;;;;;;5072728;28;20250;-74
2023/03/14 04:19:34;;;;;;;0.80;0.70;;;8.30;99.90;;;;;;5073597;28;20602;-73
2023/03/14 04:22:01;;;;;;;1.00;0.90;;;8.30;99.90;;;;;;5072931;28;20201;-75
2023/03/14 04:24:28;;;;;;;1.75;0.73;;;8.30;99.90;;;;;;5072343;28;20224;-74
2023/03/14 04:26:54;;;;;;;1.83;1.10;;;8.30;99.90;;;;;;5072412;28;20205;-75
2023/03/14 04:29:22;;;;;;;1.90;1.02;;;8.20;99.90;;;;;;5071771;28;20204;-74
2023/03/14 04:31:49;;;;;;;6.57;1.10;;;8.30;99.90;;;;;;5071536;28;20196;-74
2023/03/14 04:34:16;;;;;;;1.13;0.70;;;8.30;99.90;;;;;;5069416;28;20228;-74
2023/03/14 04:36:43;;;;;;;1.80;1.00;;;8.30;99.90;;;;;;5057041;28;20477;-76
2023/03/14 04:39:09;;;;;;;1.77;1.52;;;8.20;99.90;;;;;;5055253;28;20192;-76
2023/03/14 04:41:36;;;;;;;2.17;1.33;;;8.20;99.90;;;;;;5058576;28;20646;-75
2023/03/14 04:44:03;;;;;;;2.63;1.15;;;8.20;99.90;;;;;;5058156;28;20224;-75
2023/03/14 04:46:31;;;;;;;1.35;0.90;;;8.10;99.90;;;;;;5057358;28;20620;-75
2023/03/14 04:48:57;;;;;;;1.30;1.10;;;8.10;99.90;;;;;;5056898;28;20220;-74
2023/03/14 04:51:27;;;;;;;1.33;1.00;;;8.10;99.90;;;;;;5053174;28;20197;-75
2023/03/14 04:53:54;;;;;;;1.92;1.30;;;8.10;99.90;;;;;;5055501;28;20218;-74
2023/03/14 04:56:21;;;;;;;1.85;1.20;;;8.10;99.90;;;;;;5056548;28;20209;-74
2023/03/14 04:58:47;;;;;;;1.88;1.17;;;8.10;99.90;;;;;;5058313;28;20203;-74
2023/03/14 05:01:14;;;;;;;3.22;1.50;;;8.00;99.90;;;;;;5056005;28;20236;-74
2023/03/14 05:03:42;;;;;;;1.05;0.80;;;8.00;99.90;;;;;;5058761;28;20598;-73
2023/03/14 05:06:09;;;;;;;1.63;0.95;;;8.00;99.90;;;;;;5056660;28;20212;-72
2023/03/14 05:08:36;;;;;;;1.75;0.80;;;8.00;99.90;;;;;;5059296;28;20224;-74
2023/03/14 05:11:03;;;;;;;1.10;0.90;;;8.00;99.90;;;;;;5057977;28;20205;-74
2023/03/14 05:13:30;;;;;;;2.30;0.98;;;7.90;99.90;;;;;;5060268;28;20289;-72
2023/03/14 05:16:05;;;;;;;1.17;1.00;;;8.00;99.90;;;;;;5056645;28;20197;-75
2023/03/14 05:18:31;;;;;;;4.25;0.90;;;8.00;99.90;;;;;;5058071;28;20193;-75
2023/03/14 05:21:00;;;;;;;8.52;1.83;;;8.00;99.90;;;;;;5058570;28;20216;-75
2023/03/14 05:23:27;;;;;;;1.55;0.80;;;8.00;99.90;;;;;;5055536;28;20710;-76
2023/03/14 05:25:54;;;;;;;2.58;1.02;;;8.00;99.90;;;;;;5057105;28;20216;-76
2023/03/14 05:28:21;;;;;;;3.28;1.23;;;8.00;99.90;;;;;;5060355;28;20212;-76
2023/03/14 05:30:48;;;;;;;2.55;0.98;;;8.10;99.90;;;;;;5054310;28;20201;-76
2023/03/14 05:33:15;;;;;;;0.80;0.80;;;8.10;99.90;;;;;;5049522;28;20212;-76
2023/03/14 05:35:42;;;;;;;1.85;1.08;;;8.10;99.90;;;;;;5055214;28;20615;-76
2023/03/14 05:38:11;;;;;;;0.80;0.80;;;8.20;99.90;;;;;;5061518;28;20200;-76
2023/03/14 05:40:37;;;;;;;2.45;0.95;;;8.20;99.90;;;;;;5060153;28;20660;-75
2023/03/14 05:43:04;;;;;;;1.45;1.00;;;8.20;99.90;;;;;;5058401;28;20200;-75
2023/03/14 05:45:31;;;;;;;2.13;1.10;;;8.30;99.90;;;;;;5062889;28;20203;-75
2023/03/14 05:47:57;;;;;;;1.50;0.95;;;8.30;99.90;;;;;;5057067;28;20213;-75
2023/03/14 05:50:24;;;;;;;1.42;1.23;;;8.30;99.90;;;;;;5058006;28;20210;-75
2023/03/14 05:52:51;;;;;;;1.67;1.30;;;8.30;99.90;;;;;;5052494;28;20676;-75
2023/03/14 05:55:19;;;;;;;6.57;1.33;;;8.30;99.90;;;;;;5051470;28;20213;-75
2023/03/14 05:57:46;;;;;;;2.28;0.80;;;8.20;99.90;;;;;;5051966;28;20896;-75
2023/03/14 06:00:13;;;;;;;1.10;0.80;;;8.20;99.90;;;;;;5051625;28;20197;-75
2023/03/14 06:02:40;;;;;;;2.05;1.00;;;8.20;99.90;;;;;;5051688;28;20312;-75
2023/03/14 06:05:08;;;;;;;1.65;0.90;;;8.20;99.90;;;;;;5058897;28;20223;-75
2023/03/14 06:07:35;;;;;;;4.05;1.10;;;8.20;99.90;;;;;;5057393;28;20201;-75
2023/03/14 06:10:01;;;;;;;2.00;1.30;;;8.20;99.90;;;;;;5124300;23;20228;-70
2023/03/14 06:12:29;;;;;;;1.40;1.02;;;8.20;99.90;;;;;;5058247;28;20209;-70
2023/03/14 06:14:56;;;;;;;1.00;0.90;;;8.20;99.90;;;;;;5059060;28;20227;-69
2023/03/14 06:17:23;;;;;;;0.90;0.80;;;8.30;99.90;;;;;;5050020;28;20209;-69
2023/03/14 06:19:50;;;;;;;1.75;1.17;;;8.30;99.90;;;;;;5049691;28;20575;-70
2023/03/14 06:22:16;;;;;;;1.20;0.90;;;8.30;99.90;;;;;;5049073;28;20205;-69
2023/03/14 06:24:43;;;;;;;0.88;0.77;;;8.30;99.90;;;;;;5049457;28;20217;-70
2023/03/14 06:27:10;;;;;;;0.90;0.70;;;8.30;99.90;;;;;;5053000;28;20243;-69
2023/03/14 06:29:38;;;;;;;1.27;0.90;;;8.30;99.90;;;;;;5052992;28;20239;-69
2023/03/14 06:32:05;;;;;;;0.90;0.80;;;8.40;99.90;;;;;;5052960;28;20200;-69
2023/03/14 06:34:32;;;;;;;0.90;0.80;;;8.40;99.90;;;;;;5044764;28;20220;-70
2023/03/14 06:36:58;;;;;;;0.80;0.70;;;8.40;99.90;;;;;;5052709;28;20201;-70
2023/03/14 06:39:25;;;;;;;1.92;0.95;;;8.50;99.90;;;;;;5053031;28;20194;-69
2023/03/14 06:41:52;;;;;;;1.00;0.70;;;8.60;99.90;;;;;;5052840;28;20698;-70
2023/03/14 06:44:19;;;;;;;1.40;1.20;;;8.60;99.90;;;;;;5052408;28;20228;-69
2023/03/14 06:46:47;;;;;;;1.20;0.90;;;8.70;99.90;;;;;;5044264;28;20197;-69
2023/03/14 06:49:13;;;;;;;0.80;0.70;;;8.70;99.90;;;;;;5053236;28;20217;-70
2023/03/14 06:51:40;;;;;;;1.00;0.90;;;8.80;99.90;;;;;;5052972;28;20215;-70
2023/03/14 06:54:07;;;;;;;1.85;0.90;;;8.90;99.90;;;;;;5052225;28;20239;-70
2023/03/14 06:56:34;;;;;;;1.08;0.90;;;9.00;99.90;;;;;;5052610;28;20204;-69
2023/03/14 06:59:00;;;;;;;0.80;0.70;;;9.10;99.90;;;;;;5052684;28;20201;-70
2023/03/14 07:01:29;;;;;;;1.90;0.80;;;9.30;99.90;;;;;;5052587;28;20650;-70
2023/03/14 07:03:57;;;;;;;1.02;0.80;;;9.30;99.90;;;;;;5044093;28;20249;-70
2023/03/14 07:06:25;;;;;;;1.38;0.75;;;9.30;99.90;;;;;;5047190;28;20213;-70
2023/03/14 07:08:51;;;;;;;1.08;0.80;;;9.30;99.90;;;;;;5049965;28;20271;-70
2023/03/14 07:11:18;;;;;;;1.55;0.70;;;9.30;99.90;;;;;;5052312;28;20215;-70
2023/03/14 07:13:45;;;;;;;0.75;0.65;;;9.40;99.90;;;;;;5051943;28;20221;-70
2023/03/14 07:16:11;;;;;;;3.33;1.10;;;9.60;99.90;;;;;;5051857;28;20197;-70
2023/03/14 07:18:38;;;;;;;0.70;0.60;;;9.80;99.90;;;;;;5052461;28;20243;-70
2023/03/14 07:21:08;;;;;;;0.80;0.70;;;9.70;99.90;;;;;;5048917;28;20221;-69
2023/03/14 07:23:35;;;;;;;0.80;0.70;;;9.70;99.90;;;;;;5047539;28;20229;-69
2023/03/14 07:26:02;;;;;;;0.90;0.70;;;9.80;99.90;;;;;;5051715;28;20200;-70
2023/03/14 07:28:29;;;;;;;1.20;0.77;;;10.40;99.90;;;;;;5052364;28;20217;-70
2023/03/14 07:30:56;;;;;;;0.80;0.60;;;10.90;99.90;;;;;;5052180;28;20201;-69
2023/03/14 07:33:23;;;;;;;1.30;0.80;;;11.40;99.90;;;;;;5051981;28;20217;-70
2023/03/14 07:35:50;;;;;;;1.33;0.80;;;12.00;99.90;;;;;;5042795;28;20198;-70
2023/03/14 07:38:18;;;;;;;1.00;0.85;;;12.40;99.90;;;;;;5043516;28;20197;-71
2023/03/14 07:40:45;;;;;;;1.00;0.80;;;12.40;99.90;;;;;;5053102;28;20212;-71
2023/03/14 07:43:12;;;;;;;1.00;0.80;;;12.50;99.90;;;;;;5051681;28;20217;-70
2023/03/14 07:45:38;;;;;;;1.53;0.80;;;12.70;99.90;;;;;;5051634;28;20217;-70
2023/03/14 07:48:05;;;;;;;0.93;0.77;;;13.20;99.90;;;;;;5051588;28;20463;-70
2023/03/14 07:50:32;;;;;;;3.73;0.90;;;13.60;99.90;;;;;;5051865;28;20475;-71
2023/03/14 07:52:58;;;;;;;1.10;0.80;;;14.30;99.90;;;;;;5043126;28;20467;-70
2023/03/14 07:55:26;;;;;;;1.00;0.90;;;14.70;99.90;;;;;;5045637;28;20874;-71
2023/03/14 07:57:53;;;;;;;2.17;0.90;;;14.80;99.90;;;;;;5040724;28;20513;-71
2023/03/14 08:00:21;;;;;;;0.80;0.60;;;13.90;99.90;;;;;;5042947;28;20470;-70
2023/03/14 08:02:47;;;;;;;1.07;0.70;;;13.40;99.90;;;;;;5051120;28;20456;-71
2023/03/14 08:05:14;;;;;;;1.40;1.03;;;13.60;99.90;;;;;;5050721;28;20483;-71
2023/03/14 08:07:41;;;;;;;0.90;0.70;;;13.40;99.90;;;;;;5051328;28;20463;-70
2023/03/14 08:10:09;;;;;;;0.87;0.77;;;13.60;99.90;;;;;;5050878;28;21020;-70
2023/03/14 08:12:37;;;;;;;0.80;0.67;;;13.80;99.90;;;;;;5051227;28;20468;-70
2023/03/14 08:15:04;;;;;;;1.20;0.73;;;13.70;99.90;;;;;;5050796;28;20479;-70
2023/03/14 08:17:31;;;;;;;1.17;0.90;;;13.10;99.90;;;;;;5045471;28;20468;-70
2023/03/14 08:19:58;;;;;;;2.10;1.02;;;12.60;99.90;;;;;;5049131;28;20826;-70
2023/03/14 08:22:24;;;;;;;1.00;0.83;;;12.70;99.90;;;;;;5051094;28;20201;-70
2023/03/14 08:24:51;;;;;;;1.27;0.90;;;13.30;99.90;;;;;;5050747;28;20487;-71
2023/03/14 08:27:18;;;;;;;1.23;0.80;;;14.00;99.90;;;;;;5042507;28;20467;-70
2023/03/14 08:29:46;;;;;;;1.13;0.77;;;14.50;99.90;;;;;;5043259;28;20729;-70
2023/03/14 08:32:12;;;;;;;1.47;0.70;;;15.10;99.90;;;;;;5042278;28;20467;-70
2023/03/14 08:34:39;;;;;;;2.23;1.17;;;15.50;99.90;;;;;;5050949;28;20890;-70
2023/03/14 08:37:06;;;;;;;0.90;0.77;;;15.60;99.90;;;;;;5050784;28;20533;-70
2023/03/14 08:39:33;;;;;;;1.10;0.73;;;15.70;99.90;;;;;;5042835;28;20466;-70
2023/03/14 08:42:00;;;;;;;1.10;0.90;;;16.10;99.90;;;;;;5042692;28;20814;-70
2023/03/14 08:44:26;;;;;;;0.80;0.60;;;16.90;99.90;;;;;;5050941;28;20479;-71
2023/03/14 08:46:54;;;;;;;0.90;0.70;;;17.30;99.80;;;;;;5050667;28;20950;-71
2023/03/14 08:49:21;;;;;;;0.90;0.80;;;17.20;99.20;;;;;;5046631;28;20477;-71
2023/03/14 08:51:48;;;;;;;0.90;0.70;;;17.30;98.40;;;;;;5047801;28;20462;-71
2023/03/14 08:54:14;;;;;;;0.80;0.60;;;16.90;98.70;;;;;;5050566;28;20475;-71
2023/03/14 08:56:41;;;;;;;1.10;0.80;;;17.00;99.30;;;;;;5050680;28;20470;-70
2023/03/14 08:59:10;;;;;;;1.10;0.70;;;16.50;99.10;;;;;;5050618;28;20455;-70
2023/03/14 09:01:36;;;;;;;1.73;0.90;;;15.30;99.90;;;;;;5051015;28;20455;-70
2023/03/14 09:04:05;;;;;;;1.00;0.80;;;14.20;99.90;;;;;;5050098;28;20479;-69
2023/03/14 09:06:31;;;;;;;1.07;0.80;;;14.00;99.90;;;;;;5044998;28;20463;-71
2023/03/14 09:08:58;;;;;;;1.57;0.73;;;13.60;99.90;;;;;;5047076;28;20484;-69
2023/03/14 09:11:25;;;;;;;1.20;0.80;;;13.10;99.90;;;;;;5043875;28;20730;-70
2023/03/14 09:13:51;;;;;;;1.23;0.90;;;13.00;99.90;;;;;;5050249;28;20479;-70
2023/03/14 09:16:18;;;;;;;0.90;0.70;;;13.10;99.90;;;;;;5050149;28;20400;-70
2023/03/14 09:18:45;;;;;;;0.93;0.80;;;13.50;99.90;;;;;;5050450;28;20455;-71
2023/03/14 09:21:14;;;;;;;0.80;0.70;;;13.20;99.90;;;;;;5050064;28;20460;-70
2023/03/14 09:23:41;;;;;;;2.80;0.80;;;12.70;99.90;;;;;;5050030;28;20486;-70
2023/03/14 09:26:08;;;;;;;2.03;0.90;;;12.30;99.90;;;;;;5049913;28;20464;-70
2023/03/14 09:28:34;;;;;;;1.65;0.85;;;12.30;99.90;;;;;;5050328;28;20197;-70
2023/03/14 09:31:07;;;;;;;1.40;1.00;;;12.40;99.90;;;;;;5049451;28;20205;-70
2023/03/14 09:33:34;;;;;;;1.23;0.75;;;12.20;99.90;;;;;;5049926;28;20699;-70
2023/03/14 09:36:01;;;;;;;1.02;0.80;;;12.30;99.90;;;;;;5049344;28;20212;-71
2023/03/14 09:38:29;;;;;;;1.30;0.80;;;12.10;99.90;;;;;;5050105;28;20201;-71
2023/03/14 09:40:59;;;;;;;0.80;0.70;;;11.70;99.90;;;;;;5049524;28;20204;-70
2023/03/14 09:43:29;;;;;;;1.40;0.82;;;11.60;99.90;;;;;;5046106;28;20626;-70
2023/03/14 09:45:58;;;;;;;1.00;0.80;;;11.60;99.90;;;;;;5045486;28;20193;-70
2023/03/14 09:48:30;;;;;;;1.10;0.70;;;11.70;99.90;;;;;;5049708;28;20201;-71
2023/03/14 09:50:59;;;;;;;0.80;0.70;;;11.80;99.90;;;;;;5049521;28;20219;-70
2023/03/14 09:53:33;;;;;;;0.95;0.77;;;11.50;99.90;;;;;;5048374;28;20231;-69
2023/03/14 09:56:00;;;;;;;0.90;0.75;;;11.40;99.90;;;;;;5048559;28;20204;-69
2023/03/14 09:58:27;;;;;;;0.80;0.60;;;11.40;99.90;;;;;;5049251;28;20205;-70
2023/03/14 10:00:57;;;;;;;0.80;0.63;;;11.30;99.90;;;;;;5051007;28;20205;-69
2023/03/14 10:03:29;;;;;;;1.45;0.85;;;11.30;99.90;;;;;;5052204;28;20894;-70
2023/03/14 10:05:57;;;;;;;0.80;0.70;;;11.50;99.90;;;;;;5051469;28;20193;-70
2023/03/14 10:08:24;;;;;;;1.10;0.70;;;12.30;99.90;;;;;;5051958;28;20228;-70
2023/03/14 10:10:53;;;;;;;1.08;0.90;;;13.60;99.90;;;;;;5051794;28;20221;-70
2023/03/14 10:13:21;;;;;;;0.80;0.60;;;15.40;99.90;;;;;;5048098;28;20648;-70
2023/03/14 10:15:52;;;;;;;0.80;0.67;;;16.90;99.90;;;;;;5039145;28;20456;-70
2023/03/14 10:18:19;;;;;;;0.80;0.60;;;17.50;99.80;;;;;;5043751;28;20463;-69
2023/03/14 10:20:48;;;;;;;0.80;0.70;;;18.10;99.00;;;;;;5051336;28;20828;-70
2023/03/14 10:23:24;;;;;;;1.10;0.70;;;17.70;99.20;;;;;;5051643;28;20491;-70
2023/03/14 10:26:08;;;;;;;0.80;0.70;;;18.00;98.30;;;;;;5051559;28;20466;-70
2023/03/14 10:28:39;;;;;;;0.90;0.80;;;18.10;98.20;;;;;;5051807;28;20466;-71
2023/03/14 10:31:07;;;;;;;1.87;0.90;;;17.40;98.50;;;;;;5051005;28;20483;-70
2023/03/14 10:33:35;;;;;;;1.40;0.60;;;16.30;99.50;;;;;;5051576;28;20489;-69
2023/03/14 10:36:04;;;;;;;1.23;0.80;;;15.80;99.90;;;;;;5050854;28;20954;-69
2023/03/14 10:38:32;;;;;;;1.57;0.80;;;15.30;99.90;;;;;;5052055;28;20460;-70
2023/03/14 10:41:01;;;;;;;1.00;0.70;;;15.30;99.90;;;;;;5051325;28;20463;-71
2023/03/14 10:43:32;;;;;;;1.00;0.70;;;15.30;99.90;;;;;;5050782;28;20495;-70
2023/03/14 10:46:02;;;;;;;1.43;0.80;;;14.70;99.90;;;;;;5050973;28;20460;-70
2023/03/14 10:48:34;;;;;;;0.80;0.60;;;14.20;99.90;;;;;;5051711;28;20463;-70
2023/03/14 10:51:07;;;;;;;0.90;0.77;;;13.70;99.90;;;;;;5050587;28;20562;-70
2023/03/14 10:53:44;;;;;;;0.80;0.63;;;13.30;99.90;;;;;;5051545;28;20491;-70
2023/03/14 10:56:14;;;;;;;1.97;0.90;;;12.90;99.90;;;;;;5051294;28;20833;-69
2023/03/14 10:58:43;;;;;;;0.80;0.60;;;12.70;99.90;;;;;;5051593;28;20468;-69
2023/03/14 11:01:34;;;;;;;0.90;0.80;;;12.50;99.90;;;;;;5050841;28;20225;-70
2023/03/14 11:04:04;;;;;;;2.55;0.70;;;12.30;99.90;;;;;;5051061;28;20225;-70
2023/03/14 11:06:40;;;;;;;1.25;0.90;;;12.20;99.90;;;;;;5050790;28;20201;-70
2023/03/14 11:09:16;;;;;;;0.95;0.60;;;12.30;99.90;;;;;;5050578;28;20221;-70
2023/03/14 11:11:48;;;;;;;0.80;0.70;;;12.30;99.90;;;;;;5050380;28;20197;-70
2023/03/14 11:14:24;;;;;;;0.90;0.70;;;12.20;99.90;;;;;;5050262;28;20634;-70
2023/03/14 11:16:57;;;;;;;0.90;0.70;;;12.10;99.90;;;;;;5050982;28;20201;-70
2023/03/14 11:19:43;;;;;;;0.80;0.60;;;12.10;99.90;;;;;;5042689;28;20197;-70
2023/03/14 11:22:21;;;;;;;1.02;0.80;;;12.00;99.90;;;;;;5037134;28;20228;-71
2023/03/14 11:24:58;;;;;;;0.80;0.60;;;12.00;99.90;;;;;;5051496;28;20730;-71
2023/03/14 11:27:32;;;;;;;0.80;0.70;;;12.10;99.90;;;;;;5051436;28;20201;-70
2023/03/14 11:30:04;;;;;;;0.90;0.80;;;12.00;99.90;;;;;;5051464;28;20246;-69
2023/03/14 11:32:42;;;;;;;1.75;0.95;;;12.10;99.90;;;;;;5051045;28;20213;-71
2023/03/14 11:35:23;;;;;;;0.70;0.60;;;11.90;99.90;;;;;;5050428;28;20360;-70
2023/03/14 11:37:55;;;;;;;1.42;0.80;;;11.70;99.90;;;;;;5051842;28;20204;-70
2023/03/14 11:40:24;;;;;;;0.80;0.60;;;11.70;99.90;;;;;;5051607;28;20194;-70
2023/03/14 11:43:01;;;;;;;1.75;0.90;;;11.50;99.90;;;;;;5051701;28;20193;-69
2023/03/14 11:45:33;;;;;;;0.80;0.70;;;11.40;99.90;;;;;;5050837;28;20216;-69
2023/03/14 11:48:18;;;;;;;0.70;0.60;;;11.40;99.90;;;;;;5051628;28;20201;-70
2023/03/14 11:50:48;;;;;;;1.23;0.70;;;11.40;99.90;;;;;;5037213;28;20297;-70
2023/03/14 11:53:18;;;;;;;0.75;0.60;;;11.50;99.90;;;;;;5049599;28;20231;-70
2023/03/14 11:55:46;;;;;;;1.00;0.90;;;11.50;99.90;;;;;;5045427;28;20197;-70
2023/03/14 11:58:20;;;;;;;0.95;0.60;;;11.40;99.90;;;;;;5048819;28;20609;-70
2023/03/14 12:00:49;;;;;;;1.73;0.77;;;11.30;99.90;;;;;;5051760;28;20211;-70
2023/03/14 12:03:22;;;;;;;0.90;0.70;;;11.30;99.90;;;;;;5050825;28;20270;-70
2023/03/14 12:06:01;;;;;;;0.90;0.70;;;11.30;99.90;;;;;;5042766;28;20231;-69
2023/03/14 12:08:39;;;;;;;0.70;0.60;;;11.10;99.90;;;;;;5047993;28;20224;-70
2023/03/14 12:11:16;;;;;;;0.88;0.68;;;11.20;99.90;;;;;;5047963;28;20216;-70
2023/03/14 12:13:48;;;;;;;1.02;0.70;;;11.00;99.90;;;;;;5051224;28;20296;-70
2023/03/14 12:16:37;;;;;;;1.13;0.80;;;10.90;99.90;;;;;;5051069;28;20576;-69
2023/03/14 12:19:34;;;;;;;0.80;0.65;;;10.90;99.90;;;;;;5051363;28;20201;-69
2023/03/14 12:22:08;;;;;;;0.80;0.60;;;11.00;99.90;;;;;;5050736;28;20696;-70
2023/03/14 12:24:38;;;;;;;0.70;0.60;;;11.40;99.90;;;;;;5051530;28;20534;-70
2023/03/14 12:27:08;;;;;;;0.80;0.60;;;12.00;99.90;;;;;;5052115;28;20207;-69
2023/03/14 12:30:00;;;;;;;1.00;0.70;;;12.10;99.90;;;;;;5038743;28;20212;-70
2023/03/14 12:32:27;;;;;;;0.80;0.70;;;11.80;99.90;;;;;;5042196;28;20696;-70
2023/03/14 12:34:54;;;;;;;0.80;0.70;;;12.10;99.90;;;;;;5049912;28;20759;-70
2023/03/14 12:37:30;;;;;;;0.80;0.70;;;13.20;99.90;;;;;;5041851;28;20638;-70
2023/03/14 12:40:06;;;;;;;1.08;0.80;;;14.10;99.90;;;;;;5050775;28;20235;-70
2023/03/14 12:42:52;;;;;;;0.90;0.70;;;13.80;99.90;;;;;;5050207;28;20239;-70
2023/03/14 12:45:29;;;;;;;0.85;0.75;;;13.20;99.90;;;;;;5049683;28;20205;-70
2023/03/14 12:48:04;;;;;;;0.90;0.80;;;12.50;99.90;;;;;;5050551;28;20250;-70
2023/03/14 12:53:38;;;;;;;1.93;1.30;;;13.10;99.90;;;;;;5081921;28;20574;-73
2023/03/14 12:56:15;;;;;;;1.00;0.80;;;14.50;99.90;;;;;;5091457;28;20468;-72
2023/03/14 12:58:46;;;;;;;1.13;0.80;;;16.00;96.90;;;;;;5091711;28;20457;-74
2023/03/14 13:01:19;;;;;;;2.20;1.10;;;16.60;94.40;;;;;;5089739;28;20829;-73
2023/03/14 13:03:48;;;;;;;0.93;0.80;;;16.30;92.90;;;;;;5085672;28;20481;-74